createdAt,value
2022-08-22T00:01:38.461Z,15.50
2022-08-22T00:02:55.384Z,15.66
2022-08-22T00:04:14.422Z,15.52
2022-08-22T00:06:44.668Z,15.54
2022-08-22T00:10:11.846Z,15.62
2022-08-22T00:13:19.990Z,15.63
2022-08-22T00:16:01.160Z,15.57
2022-08-22T00:18:35.803Z,15.63
2022-08-22T00:21:14.231Z,15.65
2022-08-22T00:23:52.782Z,15.68
2022-08-22T00:26:45.470Z,15.70
2022-08-22T00:29:19.553Z,15.75
2022-08-22T00:31:58.775Z,15.81
2022-08-22T00:34:43.665Z,15.84
2022-08-22T00:37:27.903Z,15.83
2022-08-22T00:40:09.644Z,15.94
2022-08-22T00:43:04.569Z,16.14
2022-08-22T00:45:59.023Z,15.98
2022-08-22T00:48:48.105Z,16.09
2022-08-22T00:51:39.921Z,16.08
2022-08-22T00:54:16.780Z,16.08
2022-08-22T00:57:26.209Z,16.12
2022-08-22T01:00:14.054Z,16.15
2022-08-22T01:03:18.495Z,16.20
2022-08-22T01:06:12.783Z,16.17
2022-08-22T01:08:55.169Z,16.14
2022-08-22T01:11:28.117Z,16.15
2022-08-22T01:14:39.518Z,16.15
2022-08-22T01:17:41.533Z,16.22
2022-08-22T01:20:39.530Z,16.18
2022-08-22T01:23:40.733Z,16.17
2022-08-22T01:26:29.582Z,16.22
2022-08-22T01:29:10.493Z,16.25
2022-08-22T01:32:18.951Z,16.28
2022-08-22T01:34:59.650Z,16.33
2022-08-22T01:37:59.143Z,16.38
2022-08-22T01:40:53.926Z,16.41
2022-08-22T01:43:58.640Z,16.44
2022-08-22T01:46:35.006Z,16.44
2022-08-22T01:49:18.173Z,16.37
2022-08-22T01:52:17.798Z,16.34
2022-08-22T01:54:56.674Z,16.33
2022-08-22T01:57:27.869Z,16.34
2022-08-22T02:03:00.717Z,16.47
2022-08-22T02:05:59.085Z,16.49
2022-08-22T02:09:12.248Z,16.51
2022-08-22T02:12:21.989Z,16.50
2022-08-22T02:15:15.274Z,16.51
2022-08-22T02:18:05.214Z,16.53
2022-08-22T02:21:43.370Z,16.52
2022-08-22T02:24:33.335Z,16.57
2022-08-22T02:27:51.337Z,16.58
2022-08-22T02:30:50.761Z,16.59
2022-08-22T02:33:56.862Z,16.60
2022-08-22T02:36:50.582Z,16.60
2022-08-22T02:39:57.317Z,16.58
2022-08-22T02:43:09.030Z,16.56
2022-08-22T02:46:14.111Z,16.57
2022-08-22T02:49:24.074Z,16.57
2022-08-22T02:52:34.041Z,16.61
2022-08-22T02:55:34.812Z,16.61
2022-08-22T02:58:37.051Z,16.64
2022-08-22T03:01:36.843Z,16.61
2022-08-22T03:04:27.112Z,16.61
2022-08-22T03:07:27.154Z,16.67
2022-08-22T03:10:23.736Z,16.62
2022-08-22T03:13:40.117Z,16.81
2022-08-22T03:16:27.364Z,16.88
2022-08-22T03:19:39.272Z,16.85
2022-08-22T03:23:00.245Z,16.65
2022-08-22T03:26:11.677Z,16.57
2022-08-22T03:29:09.290Z,16.56
2022-08-22T03:32:19.572Z,16.59
2022-08-22T03:35:22.206Z,16.59
2022-08-22T03:38:26.494Z,16.57
2022-08-22T03:41:42.274Z,16.59
2022-08-22T03:44:35.837Z,16.58
2022-08-22T03:47:49.788Z,16.61
2022-08-22T03:51:01.631Z,16.63
2022-08-22T03:53:54.692Z,16.63
2022-08-22T03:57:00.469Z,16.64
2022-08-22T03:59:59.943Z,16.62
2022-08-22T04:03:06.625Z,16.63
2022-08-22T04:06:17.859Z,16.61
2022-08-22T04:09:32.320Z,16.60
2022-08-22T04:12:50.211Z,16.67
2022-08-22T04:16:01.167Z,16.69
2022-08-22T04:19:12.920Z,16.71
2022-08-22T04:22:20.539Z,16.73
2022-08-22T04:26:12.195Z,16.80
2022-08-22T04:29:24.965Z,16.90
2022-08-22T04:32:26.726Z,16.91
2022-08-22T04:35:28.111Z,17.06
2022-08-22T04:38:30.644Z,17.13
2022-08-22T04:42:00.702Z,17.37
2022-08-22T04:45:10.000Z,17.10
2022-08-22T04:48:00.300Z,17.13
2022-08-22T04:51:13.259Z,17.22
2022-08-22T04:54:19.050Z,17.18
2022-08-22T04:57:28.371Z,17.21
2022-08-22T05:00:17.208Z,17.21
2022-08-22T05:03:12.188Z,17.22
2022-08-22T05:06:03.044Z,17.23
2022-08-22T05:08:53.805Z,17.27
2022-08-22T05:11:42.749Z,17.36
2022-08-22T05:14:40.111Z,17.39
2022-08-22T05:17:32.072Z,17.40
2022-08-22T05:20:23.041Z,17.43
2022-08-22T05:23:18.817Z,17.50
2022-08-22T05:26:07.538Z,17.57
2022-08-22T05:29:01.218Z,17.53
2022-08-22T05:32:05.682Z,17.61
2022-08-22T05:34:56.137Z,17.65
2022-08-22T05:37:47.768Z,17.71
2022-08-22T05:40:37.950Z,17.77
2022-08-22T05:43:26.833Z,17.77
2022-08-22T05:46:33.176Z,17.85
2022-08-22T05:49:23.343Z,17.86
2022-08-22T05:52:13.422Z,17.87
2022-08-22T05:55:33.061Z,17.99
2022-08-22T05:58:39.027Z,18.01
2022-08-22T06:01:26.339Z,18.08
2022-08-22T06:04:26.946Z,18.13
2022-08-22T06:07:32.623Z,18.18
2022-08-22T06:10:43.336Z,18.23
2022-08-22T06:13:41.559Z,18.23
2022-08-22T06:16:48.577Z,18.30
2022-08-22T06:19:40.256Z,18.37
2022-08-22T06:22:31.772Z,18.39
2022-08-22T06:25:28.630Z,18.38
2022-08-22T06:28:25.816Z,18.37
2022-08-22T06:31:19.791Z,18.35
2022-08-22T06:34:14.934Z,18.48
2022-08-22T06:37:09.894Z,18.55
2022-08-22T06:39:58.870Z,18.57
2022-08-22T06:42:50.935Z,18.70
2022-08-22T06:45:39.827Z,18.72
2022-08-22T06:48:27.393Z,18.77
2022-08-22T06:51:17.858Z,18.88
2022-08-22T06:54:12.258Z,18.98
2022-08-22T06:57:00.269Z,18.91
2022-08-22T06:59:49.634Z,19.01
2022-08-22T07:02:44.194Z,19.05
2022-08-22T07:05:37.075Z,19.08
2022-08-22T07:08:26.654Z,19.10
2022-08-22T07:11:27.341Z,19.11
2022-08-22T07:14:25.466Z,19.09
2022-08-22T07:17:25.632Z,19.08
2022-08-22T07:20:45.277Z,19.10
2022-08-22T07:23:40.710Z,19.07
2022-08-22T07:26:48.548Z,19.05
2022-08-22T07:29:58.079Z,19.05
2022-08-22T07:33:26.023Z,19.06
2022-08-22T07:36:46.703Z,19.09
2022-08-22T07:39:51.503Z,19.27
2022-08-22T07:43:05.233Z,19.53
2022-08-22T07:46:18.377Z,19.66
2022-08-22T07:49:38.402Z,19.81
2022-08-22T07:52:30.612Z,19.79
2022-08-22T07:55:26.774Z,19.85
2022-08-22T07:58:16.355Z,19.90
2022-08-22T08:01:03.698Z,20.00
2022-08-22T08:04:07.874Z,20.08
2022-08-22T08:06:58.141Z,20.08
2022-08-22T08:09:55.624Z,20.15
2022-08-22T08:12:57.929Z,20.14
2022-08-22T08:15:51.352Z,20.23
2022-08-22T08:18:40.308Z,20.31
2022-08-22T08:21:43.018Z,20.37
2022-08-22T08:24:40.212Z,20.41
2022-08-22T08:27:52.617Z,20.46
2022-08-22T08:30:45.716Z,20.55
2022-08-22T08:33:33.925Z,20.54
2022-08-22T08:36:50.910Z,20.63
2022-08-22T08:39:53.639Z,20.66
2022-08-22T08:43:23.079Z,20.78
2022-08-22T08:46:39.526Z,20.90
2022-08-22T08:49:39.609Z,20.98
2022-08-22T08:52:35.950Z,21.10
2022-08-22T08:55:44.430Z,21.15
2022-08-22T08:58:57.165Z,21.20
2022-08-22T09:01:56.813Z,21.27
2022-08-22T09:05:09.224Z,21.50
2022-08-22T09:08:18.504Z,21.39
2022-08-22T09:11:44.668Z,21.37
2022-08-22T09:14:49.940Z,21.31
2022-08-22T09:18:08.884Z,21.37
2022-08-22T09:21:11.272Z,21.39
2022-08-22T09:24:18.049Z,21.53
2022-08-22T09:27:19.517Z,21.43
2022-08-22T09:30:15.714Z,21.42
2022-08-22T09:33:07.776Z,21.54
2022-08-22T09:36:06.471Z,21.65
2022-08-22T09:39:17.923Z,21.63
2022-08-22T09:42:35.378Z,21.67
2022-08-22T09:45:38.455Z,21.62
2022-08-22T09:48:38.218Z,21.57
2022-08-22T09:52:05.157Z,21.55
2022-08-22T09:55:27.872Z,21.54
2022-08-22T09:58:40.681Z,21.52
2022-08-22T10:02:15.505Z,21.56
2022-08-22T10:05:43.953Z,21.60
2022-08-22T10:08:47.277Z,21.57
2022-08-22T10:11:50.159Z,21.61
2022-08-22T10:14:52.062Z,21.52
2022-08-22T10:18:04.286Z,21.47
2022-08-22T10:21:07.853Z,21.51
2022-08-22T10:24:07.024Z,21.48
2022-08-22T10:26:59.884Z,21.47
2022-08-22T10:30:06.640Z,21.49
2022-08-22T10:33:13.595Z,21.45
2022-08-22T10:36:04.804Z,21.43
2022-08-22T10:39:00.214Z,21.38
2022-08-22T10:42:19.495Z,21.28
2022-08-22T10:45:32.120Z,21.29
2022-08-22T10:48:35.057Z,21.31
2022-08-22T10:51:39.777Z,21.20
2022-08-22T10:54:45.650Z,21.23
2022-08-22T10:57:52.134Z,21.20
2022-08-22T11:00:58.417Z,21.28
2022-08-22T11:04:06.957Z,21.29
2022-08-22T11:07:24.089Z,21.12
2022-08-22T11:10:49.184Z,21.07
2022-08-22T11:14:01.005Z,21.10
2022-08-22T11:17:27.991Z,21.14
2022-08-22T11:20:26.596Z,21.03
2022-08-22T11:23:31.947Z,21.05
2022-08-22T11:26:30.071Z,21.02
2022-08-22T11:29:44.257Z,21.06
2022-08-22T11:33:01.004Z,21.08
2022-08-22T11:36:04.583Z,21.04
2022-08-22T11:39:25.890Z,20.98
2022-08-22T11:42:33.485Z,20.93
2022-08-22T11:45:26.998Z,20.98
2022-08-22T11:48:28.759Z,20.95
2022-08-22T11:51:57.568Z,21.01
2022-08-22T11:55:07.085Z,21.10
2022-08-22T11:58:17.491Z,21.21
2022-08-22T12:01:16.992Z,21.24
2022-08-22T12:04:32.005Z,21.31
2022-08-22T12:07:29.095Z,21.43
2022-08-22T12:10:30.585Z,21.43
2022-08-22T12:13:40.864Z,21.43
2022-08-22T12:16:39.954Z,21.49
2022-08-22T12:20:14.653Z,21.53
2022-08-22T12:23:22.187Z,21.55
2022-08-22T12:26:52.758Z,21.67
2022-08-22T12:30:13.713Z,21.66
2022-08-22T12:33:29.057Z,21.60
2022-08-22T12:36:54.103Z,21.58
2022-08-22T12:40:19.460Z,21.51
2022-08-22T12:43:42.363Z,21.64
2022-08-22T12:46:51.483Z,21.65
2022-08-22T12:49:38.735Z,21.74
2022-08-22T12:52:50.142Z,21.83
2022-08-22T12:56:05.309Z,21.93
2022-08-22T12:59:30.781Z,21.96
2022-08-22T13:02:35.023Z,22.02
2022-08-22T13:05:26.254Z,22.07
2022-08-22T13:08:22.969Z,22.19
2022-08-22T13:11:23.261Z,22.30
2022-08-22T13:14:19.036Z,22.46
2022-08-22T13:17:25.008Z,22.61
2022-08-22T13:20:23.692Z,22.76
2022-08-22T13:23:20.716Z,22.77
2022-08-22T13:26:34.019Z,22.80
2022-08-22T13:29:42.907Z,22.89
2022-08-22T13:32:46.084Z,22.85
2022-08-22T13:35:44.707Z,22.70
2022-08-22T13:38:46.318Z,22.70
2022-08-22T13:41:44.247Z,22.59
2022-08-22T13:44:40.209Z,22.60
2022-08-22T13:47:31.831Z,22.61
2022-08-22T13:50:23.250Z,22.67
2022-08-22T13:53:26.247Z,22.71
2022-08-22T13:56:20.847Z,22.70
2022-08-22T13:59:29.255Z,22.59
2022-08-22T14:02:48.224Z,22.59
2022-08-22T14:05:46.432Z,22.51
2022-08-22T14:08:37.303Z,22.41
2022-08-22T14:11:30.212Z,22.37
2022-08-22T14:14:28.223Z,22.28
2022-08-22T14:17:24.268Z,22.10
2022-08-22T14:20:32.555Z,22.03
2022-08-22T14:23:29.530Z,21.96
2022-08-22T14:26:32.727Z,22.01
2022-08-22T14:29:28.224Z,22.01
2022-08-22T14:32:23.830Z,22.02
2022-08-22T14:35:35.404Z,22.16
2022-08-22T14:38:35.449Z,22.15
2022-08-22T14:41:25.522Z,22.18
2022-08-22T14:44:21.167Z,22.26
2022-08-22T14:47:54.176Z,22.31
2022-08-22T14:50:43.632Z,22.39
2022-08-22T14:53:33.594Z,22.50
2022-08-22T14:56:22.642Z,22.59
2022-08-22T14:59:27.041Z,22.64
2022-08-22T15:02:32.087Z,22.70
2022-08-22T15:05:21.640Z,22.77
2022-08-22T15:08:10.437Z,22.72
2022-08-22T15:11:14.871Z,22.59
2022-08-22T15:14:12.596Z,22.41
2022-08-22T15:17:05.428Z,22.29
2022-08-22T15:19:52.880Z,22.39
2022-08-22T15:22:46.262Z,22.37
2022-08-22T15:25:40.984Z,22.32
2022-08-22T15:28:33.727Z,22.38
2022-08-22T15:31:40.714Z,22.19
2022-08-22T15:34:39.884Z,22.14
2022-08-22T15:37:32.780Z,22.06
2022-08-22T15:40:40.702Z,22.15
2022-08-22T15:43:35.966Z,22.14
2022-08-22T15:46:26.159Z,22.13
2022-08-22T15:49:27.894Z,22.11
2022-08-22T15:52:31.232Z,22.05
2022-08-22T15:55:24.612Z,22.05
2022-08-22T15:58:24.852Z,21.96
2022-08-22T16:01:22.376Z,21.78
2022-08-22T16:04:14.773Z,21.59
2022-08-22T16:07:05.371Z,21.57
2022-08-22T16:09:59.335Z,21.61
2022-08-22T16:13:07.575Z,21.58
2022-08-22T16:16:00.432Z,21.48
2022-08-22T16:18:47.628Z,21.47
2022-08-22T16:21:55.018Z,21.34
2022-08-22T16:25:00.637Z,21.24
2022-08-22T16:27:57.157Z,21.13
2022-08-22T16:30:44.764Z,21.10
2022-08-22T16:33:37.653Z,21.03
2022-08-22T16:36:50.439Z,20.90
2022-08-22T16:40:14.419Z,20.79
2022-08-22T16:43:18.313Z,20.74
2022-08-22T16:46:43.643Z,20.66
2022-08-22T16:49:35.558Z,20.53
2022-08-22T16:52:25.944Z,20.36
2022-08-22T16:55:31.157Z,20.20
2022-08-22T16:59:03.289Z,20.14
2022-08-22T17:02:31.741Z,20.08
2022-08-22T17:05:29.372Z,20.18
2022-08-22T17:08:35.975Z,20.28
2022-08-22T17:11:35.315Z,20.29
2022-08-22T17:14:28.273Z,20.29
2022-08-22T17:17:40.298Z,20.30
2022-08-22T17:20:33.481Z,20.27
2022-08-22T17:23:38.595Z,20.22
2022-08-22T17:26:55.800Z,19.91
2022-08-22T17:30:07.407Z,20.03
2022-08-22T17:32:57.211Z,19.89
2022-08-22T17:35:57.249Z,19.87
2022-08-22T17:39:34.862Z,19.82
2022-08-22T17:42:25.114Z,19.77
2022-08-22T17:45:37.282Z,19.71
2022-08-22T17:48:48.246Z,19.50
2022-08-22T17:51:41.580Z,19.46
2022-08-22T17:54:58.780Z,19.44
2022-08-22T17:58:03.889Z,19.41
2022-08-22T18:00:56.565Z,19.36
2022-08-22T18:03:58.235Z,19.26
2022-08-22T18:06:59.501Z,19.22
2022-08-22T18:09:52.158Z,19.13
2022-08-22T18:13:06.867Z,19.10
2022-08-22T18:16:00.369Z,19.01
2022-08-22T18:19:27.570Z,18.99
2022-08-22T18:22:35.886Z,18.83
2022-08-22T18:25:23.298Z,18.84
2022-08-22T18:28:27.552Z,18.78
2022-08-22T18:31:21.432Z,18.74
2022-08-22T18:34:46.916Z,18.70
2022-08-22T18:37:35.402Z,18.70
2022-08-22T18:40:29.280Z,18.66
2022-08-22T18:43:50.647Z,18.62
2022-08-22T18:46:37.789Z,18.65
2022-08-22T18:49:24.980Z,18.64
2022-08-22T18:52:41.410Z,18.62
2022-08-22T18:55:56.601Z,18.58
2022-08-22T18:59:05.102Z,18.63
2022-08-22T19:02:27.398Z,18.53
2022-08-22T19:05:59.304Z,18.42
2022-08-22T19:09:05.394Z,18.37
2022-08-22T19:12:31.485Z,18.38
2022-08-22T19:16:12.315Z,18.28
2022-08-22T19:19:17.173Z,18.28
2022-08-22T19:22:19.715Z,18.30
2022-08-22T19:25:26.846Z,18.27
2022-08-22T19:28:23.219Z,18.28
2022-08-22T19:31:42.723Z,18.30
2022-08-22T19:34:29.965Z,18.39
2022-08-22T19:37:30.465Z,18.37
2022-08-22T19:40:45.831Z,18.44
2022-08-22T19:43:40.649Z,18.46
2022-08-22T19:46:36.889Z,18.46
2022-08-22T19:49:31.379Z,18.49
2022-08-22T19:52:24.128Z,18.49
2022-08-22T19:55:15.158Z,18.54
2022-08-22T19:58:05.103Z,18.54
2022-08-22T20:00:58.059Z,18.53
2022-08-22T20:03:58.196Z,18.49
2022-08-22T20:07:00.327Z,18.48
2022-08-22T20:09:53.359Z,18.44
2022-08-22T20:12:46.562Z,18.50
2022-08-22T20:15:55.203Z,18.44
2022-08-22T20:19:16.005Z,18.50
2022-08-22T20:22:05.887Z,18.52
2022-08-22T20:25:03.183Z,18.48
2022-08-22T20:28:03.056Z,18.50
2022-08-22T20:30:58.006Z,18.48
2022-08-22T20:33:46.847Z,18.45
2022-08-22T20:36:35.769Z,18.38
2022-08-22T20:39:27.060Z,18.42
2022-08-22T20:42:17.648Z,18.37
2022-08-22T20:45:12.256Z,18.38
2022-08-22T20:47:59.918Z,18.32
2022-08-22T20:50:48.150Z,18.32
2022-08-22T20:53:36.706Z,18.26
2022-08-22T20:56:53.519Z,18.27
2022-08-22T20:59:49.578Z,18.27
2022-08-22T21:02:39.572Z,18.29
2022-08-22T21:05:41.507Z,18.24
2022-08-22T21:08:28.721Z,18.26
2022-08-22T21:11:41.041Z,18.29
2022-08-22T21:14:33.957Z,18.31
2022-08-22T21:17:33.674Z,18.37
2022-08-22T21:20:23.011Z,18.41
2022-08-22T21:23:15.154Z,18.44
2022-08-22T21:26:07.206Z,18.44
2022-08-22T21:29:03.470Z,18.43
2022-08-22T21:31:54.304Z,18.39
2022-08-22T21:34:49.853Z,18.30
2022-08-22T21:37:46.002Z,18.28
2022-08-22T21:40:37.285Z,18.29
2022-08-22T21:43:32.837Z,18.25
2022-08-22T21:46:29.204Z,18.20
2022-08-22T21:49:26.062Z,18.22
2022-08-22T21:52:26.937Z,18.18
2022-08-22T21:55:39.080Z,18.18
2022-08-22T21:58:36.918Z,18.05
2022-08-22T22:01:30.763Z,17.94
2022-08-22T22:04:18.957Z,17.87
2022-08-22T22:07:06.228Z,17.87
2022-08-22T22:09:54.840Z,17.87
2022-08-22T22:12:44.862Z,17.83
2022-08-22T22:15:37.071Z,17.81
2022-08-22T22:18:27.615Z,17.84
2022-08-22T22:21:14.816Z,17.87
2022-08-22T22:24:02.163Z,17.85
2022-08-22T22:26:49.376Z,17.93
2022-08-22T22:29:36.904Z,17.97
2022-08-22T22:32:24.130Z,18.03
2022-08-22T22:35:11.356Z,18.15
2022-08-22T22:38:01.182Z,18.20
2022-08-22T22:40:48.622Z,18.28
2022-08-22T22:43:36.108Z,18.27
2022-08-22T22:46:24.203Z,18.30
2022-08-22T22:49:11.442Z,18.33
2022-08-22T22:51:59.810Z,18.32
2022-08-22T22:54:47.362Z,18.35
2022-08-22T22:57:42.519Z,18.35
2022-08-22T23:00:32.683Z,18.26
2022-08-22T23:03:20.479Z,18.59
2022-08-22T23:06:17.052Z,19.93
2022-08-22T23:09:04.364Z,18.57
2022-08-22T23:11:51.571Z,18.10
2022-08-22T23:14:38.857Z,18.00
2022-08-22T23:17:26.258Z,17.84
2022-08-22T23:20:13.552Z,17.79
2022-08-22T23:23:00.914Z,17.73
2022-08-22T23:25:48.095Z,17.75
2022-08-22T23:28:35.441Z,17.73
2022-08-22T23:31:56.342Z,17.78
2022-08-22T23:34:46.302Z,17.71
2022-08-22T23:37:33.670Z,17.59
2022-08-22T23:40:21.036Z,17.61
2022-08-22T23:43:08.368Z,17.75
2022-08-22T23:45:55.678Z,17.62
2022-08-22T23:48:43.734Z,17.74
2022-08-22T23:51:31.404Z,17.79
2022-08-22T23:54:18.930Z,17.85
2022-08-22T23:57:12.216Z,17.76
2022-08-22T23:59:59.957Z,17.75
